createdAt,value
2023-09-01T00:00:00.069Z,0.00
2023-09-01T00:00:50.883Z,0.00
2023-09-01T00:01:41.630Z,0.00
2023-09-01T00:02:32.436Z,0.00
2023-09-01T00:03:23.270Z,0.00
2023-09-01T00:04:14.067Z,0.00
2023-09-01T00:05:04.840Z,0.00
2023-09-01T00:05:55.627Z,0.00
2023-09-01T00:06:46.426Z,0.00
2023-09-01T00:07:37.196Z,0.00
2023-09-01T00:08:27.975Z,0.00
2023-09-01T00:09:18.742Z,0.00
2023-09-01T00:10:09.542Z,0.00
2023-09-01T00:11:00.297Z,0.00
2023-09-01T00:11:51.087Z,0.00
2023-09-01T00:12:41.866Z,0.00
2023-09-01T00:13:32.692Z,0.00
2023-09-01T00:14:23.447Z,0.00
2023-09-01T00:15:14.254Z,0.00
2023-09-01T00:16:05.022Z,0.00
2023-09-01T00:16:55.841Z,0.00
2023-09-01T00:17:46.631Z,0.00
2023-09-01T00:18:37.390Z,0.00
2023-09-01T00:19:28.169Z,0.00
2023-09-01T00:20:18.957Z,0.00
2023-09-01T00:21:09.751Z,0.00
2023-09-01T00:22:00.553Z,0.00
2023-09-01T00:22:52.274Z,0.00
2023-09-01T00:23:42.345Z,0.00
2023-09-01T00:24:33.129Z,0.00
2023-09-01T00:25:23.910Z,0.00
2023-09-01T00:26:14.698Z,0.00
2023-09-01T00:27:05.499Z,0.00
2023-09-01T00:27:56.260Z,0.00
2023-09-01T00:28:47.032Z,0.00
2023-09-01T00:29:37.814Z,0.00
2023-09-01T00:30:28.596Z,0.00
2023-09-01T00:31:19.396Z,0.00
2023-09-01T00:32:10.184Z,0.00
2023-09-01T00:33:01.025Z,0.00
2023-09-01T00:33:51.756Z,0.00
2023-09-01T00:34:42.549Z,0.00
2023-09-01T00:35:33.333Z,0.00
2023-09-01T00:36:24.117Z,0.00
2023-09-01T00:37:14.930Z,0.00
2023-09-01T00:38:05.685Z,0.00
2023-09-01T00:38:56.463Z,0.00
2023-09-01T00:39:47.268Z,0.00
2023-09-01T00:40:38.050Z,0.00
2023-09-01T00:41:28.834Z,0.00
2023-09-01T00:42:19.627Z,0.00
2023-09-01T00:43:10.395Z,0.00
2023-09-01T00:44:01.193Z,0.00
2023-09-01T00:44:51.978Z,0.00
2023-09-01T00:45:42.805Z,0.00
2023-09-01T00:46:33.626Z,0.00
2023-09-01T00:47:24.435Z,0.00
2023-09-01T00:48:15.226Z,0.00
2023-09-01T00:49:05.988Z,0.00
2023-09-01T00:49:56.772Z,0.00
2023-09-01T00:50:47.584Z,0.00
2023-09-01T00:51:38.363Z,0.00
2023-09-01T00:52:29.180Z,0.00
2023-09-01T00:53:19.971Z,0.00
2023-09-01T00:54:10.740Z,0.00
2023-09-01T00:55:01.522Z,0.00
2023-09-01T00:55:52.357Z,0.00
2023-09-01T00:56:43.099Z,0.00
2023-09-01T00:57:33.943Z,0.00
2023-09-01T00:58:24.967Z,0.00
2023-09-01T00:59:15.756Z,0.00
2023-09-01T01:00:06.552Z,0.00
2023-09-01T01:00:57.338Z,0.00
2023-09-01T01:01:48.130Z,0.00
2023-09-01T01:02:38.981Z,0.00
2023-09-01T01:03:29.803Z,0.00
2023-09-01T01:04:20.656Z,0.00
2023-09-01T01:05:11.427Z,0.00
2023-09-01T01:06:02.223Z,0.00
2023-09-01T01:06:52.995Z,0.00
2023-09-01T01:07:43.803Z,0.00
2023-09-01T01:08:34.558Z,0.00
2023-09-01T01:09:25.356Z,0.00
2023-09-01T01:10:16.156Z,0.00
2023-09-01T01:11:06.940Z,0.00
2023-09-01T01:11:57.736Z,0.00
2023-09-01T01:12:48.512Z,0.00
2023-09-01T01:13:39.319Z,0.00
2023-09-01T01:14:30.100Z,0.00
2023-09-01T01:15:20.956Z,0.00
2023-09-01T01:16:11.774Z,0.00
2023-09-01T01:17:02.543Z,0.00
2023-09-01T01:17:53.350Z,0.00
2023-09-01T01:18:44.193Z,0.00
2023-09-01T01:19:34.915Z,0.00
2023-09-01T01:20:25.698Z,0.00
2023-09-01T01:21:16.499Z,0.00
2023-09-01T01:22:07.261Z,0.00
2023-09-01T01:22:58.059Z,0.00
2023-09-01T01:23:48.811Z,0.00
2023-09-01T01:24:39.584Z,0.00
2023-09-01T01:25:30.380Z,0.00
2023-09-01T01:26:21.167Z,0.00
2023-09-01T01:27:11.969Z,0.00
2023-09-01T01:28:02.757Z,0.00
2023-09-01T01:28:53.549Z,0.00
2023-09-01T01:29:44.339Z,0.00
2023-09-01T01:30:35.363Z,0.00
2023-09-01T01:31:26.174Z,0.00
2023-09-01T01:32:16.949Z,0.00
2023-09-01T01:33:07.775Z,0.00
2023-09-01T01:33:59.785Z,0.00
2023-09-01T01:34:49.211Z,0.00
2023-09-01T01:35:39.971Z,0.00
2023-09-01T01:36:30.765Z,0.00
2023-09-01T01:37:21.551Z,0.00
2023-09-01T01:38:12.680Z,0.00
2023-09-01T01:39:03.078Z,0.00
2023-09-01T01:39:53.860Z,0.00
2023-09-01T01:40:44.631Z,0.00
2023-09-01T01:41:35.406Z,0.00
2023-09-01T01:42:26.197Z,0.00
2023-09-01T01:43:16.980Z,0.00
2023-09-01T01:44:07.750Z,0.00
2023-09-01T01:44:58.533Z,0.00
2023-09-01T01:45:49.347Z,0.00
2023-09-01T01:46:40.115Z,0.00
2023-09-01T01:47:30.941Z,0.00
2023-09-01T01:48:21.699Z,0.00
2023-09-01T01:49:12.478Z,0.00
2023-09-01T01:50:03.299Z,0.00
2023-09-01T01:50:54.049Z,0.00
2023-09-01T01:51:44.831Z,0.00
2023-09-01T01:52:35.631Z,0.00
2023-09-01T01:53:26.427Z,0.00
2023-09-01T01:54:17.226Z,0.00
2023-09-01T01:55:08.213Z,0.00
2023-09-01T01:55:58.982Z,0.00
2023-09-01T01:56:49.765Z,0.00
2023-09-01T01:57:40.551Z,0.00
2023-09-01T01:58:31.328Z,0.00
2023-09-01T01:59:22.113Z,0.00
2023-09-01T02:00:12.910Z,0.00
2023-09-01T02:01:03.702Z,0.00
2023-09-01T02:01:54.463Z,0.00
2023-09-01T02:02:45.271Z,0.00
2023-09-01T02:03:36.030Z,0.00
2023-09-01T02:04:26.819Z,0.00
2023-09-01T02:05:17.652Z,0.00
2023-09-01T02:06:08.395Z,0.00
2023-09-01T02:06:59.170Z,0.00
2023-09-01T02:07:49.974Z,0.00
2023-09-01T02:08:40.772Z,0.00
2023-09-01T02:09:31.530Z,0.00
2023-09-01T02:10:22.323Z,0.00
2023-09-01T02:11:13.089Z,0.00
2023-09-01T02:12:03.892Z,0.00
2023-09-01T02:12:54.667Z,0.00
2023-09-01T02:13:45.432Z,0.00
2023-09-01T02:14:36.214Z,0.00
2023-09-01T02:15:26.988Z,0.00
2023-09-01T02:16:17.802Z,0.00
2023-09-01T02:17:08.565Z,0.00
2023-09-01T02:17:59.382Z,0.00
2023-09-01T02:18:50.140Z,0.00
2023-09-01T02:19:40.922Z,0.00
2023-09-01T02:20:31.718Z,0.00
2023-09-01T02:21:22.508Z,0.00
2023-09-01T02:22:13.291Z,0.00
2023-09-01T02:23:04.061Z,0.00
2023-09-01T02:23:54.907Z,0.00
2023-09-01T02:24:45.647Z,0.00
2023-09-01T02:25:36.443Z,0.00
2023-09-01T02:26:27.242Z,0.00
2023-09-01T02:27:18.014Z,0.00
2023-09-01T02:28:08.803Z,0.00
2023-09-01T02:28:59.591Z,0.00
2023-09-01T02:29:50.358Z,0.00
2023-09-01T02:30:41.199Z,0.00
2023-09-01T02:31:31.967Z,0.00
2023-09-01T02:32:22.725Z,0.00
2023-09-01T02:33:13.559Z,0.00
2023-09-01T02:34:04.326Z,0.00
2023-09-01T02:34:55.088Z,0.00
2023-09-01T02:35:45.926Z,0.00
2023-09-01T02:36:36.747Z,0.00
2023-09-01T02:37:27.554Z,0.00
2023-09-01T02:38:18.473Z,0.00
2023-09-01T02:39:09.216Z,0.00
2023-09-01T02:39:59.973Z,0.00
2023-09-01T02:40:50.749Z,0.00
2023-09-01T02:41:41.536Z,0.00
2023-09-01T02:42:32.332Z,0.00
2023-09-01T02:43:23.124Z,0.00
2023-09-01T02:44:13.904Z,0.00
2023-09-01T02:45:04.693Z,0.00
2023-09-01T02:45:55.467Z,0.00
2023-09-01T02:46:46.269Z,0.00
2023-09-01T02:47:37.055Z,0.00
2023-09-01T02:48:27.818Z,0.00
2023-09-01T02:49:18.608Z,0.00
2023-09-01T02:50:09.381Z,0.00
2023-09-01T02:51:00.176Z,0.00
2023-09-01T02:51:50.947Z,0.00
2023-09-01T02:52:41.713Z,0.00
2023-09-01T02:53:32.494Z,0.00
2023-09-01T02:54:23.283Z,0.00
2023-09-01T02:55:14.042Z,0.00
2023-09-01T02:56:06.678Z,0.00
2023-09-01T02:56:55.691Z,0.00
2023-09-01T02:57:46.452Z,0.00
2023-09-01T02:58:37.248Z,0.00
2023-09-01T02:59:28.031Z,0.00
2023-09-01T03:00:18.828Z,0.00
2023-09-01T03:01:10.018Z,0.00
2023-09-01T03:02:00.293Z,0.00
2023-09-01T03:02:51.192Z,0.00
2023-09-01T03:03:42.193Z,0.00
2023-09-01T03:04:32.992Z,0.00
2023-09-01T03:05:23.777Z,0.00
2023-09-01T03:06:14.568Z,0.00
2023-09-01T03:07:05.343Z,0.00
2023-09-01T03:07:56.132Z,0.00
2023-09-01T03:08:46.927Z,0.00
2023-09-01T03:09:37.724Z,0.00
2023-09-01T03:10:29.813Z,0.00
2023-09-01T03:11:19.227Z,0.00
2023-09-01T03:12:10.001Z,0.00
2023-09-01T03:13:00.791Z,0.00
2023-09-01T03:13:51.573Z,0.00
2023-09-01T03:14:42.342Z,0.00
2023-09-01T03:15:33.126Z,0.00
2023-09-01T03:16:23.935Z,0.00
2023-09-01T03:17:14.676Z,0.00
2023-09-01T03:18:05.470Z,0.00
2023-09-01T03:18:56.237Z,0.00
2023-09-01T03:19:47.360Z,0.00
2023-09-01T03:20:38.161Z,0.00
2023-09-01T03:21:28.955Z,0.00
2023-09-01T03:22:19.748Z,0.00
2023-09-01T03:23:10.527Z,0.00
2023-09-01T03:24:01.372Z,0.00
2023-09-01T03:24:52.160Z,0.00
2023-09-01T03:25:42.920Z,0.00
2023-09-01T03:26:33.689Z,0.00
2023-09-01T03:27:24.483Z,0.00
2023-09-01T03:28:15.513Z,0.00
2023-09-01T03:29:06.380Z,0.00
2023-09-01T03:29:57.171Z,0.00
2023-09-01T03:30:47.955Z,0.00
2023-09-01T03:31:38.773Z,0.00
2023-09-01T03:32:29.569Z,0.00
2023-09-01T03:33:20.331Z,0.00
2023-09-01T03:34:11.139Z,0.00
2023-09-01T03:35:01.908Z,0.00
2023-09-01T03:35:52.698Z,0.00
2023-09-01T03:36:43.499Z,0.00
2023-09-01T03:37:34.323Z,0.00
2023-09-01T03:38:25.103Z,0.00
2023-09-01T03:39:15.920Z,0.00
2023-09-01T03:40:06.737Z,0.00
2023-09-01T03:40:57.508Z,0.00
2023-09-01T03:41:48.285Z,0.00
2023-09-01T03:42:39.069Z,0.00
2023-09-01T03:43:29.859Z,0.00
2023-09-01T03:44:20.662Z,0.00
2023-09-01T03:45:11.407Z,0.00
2023-09-01T03:46:02.239Z,0.00
2023-09-01T03:46:52.983Z,0.00
2023-09-01T03:47:43.810Z,0.00
2023-09-01T03:48:34.540Z,0.00
2023-09-01T03:49:25.301Z,0.00
2023-09-01T03:50:16.057Z,0.00
2023-09-01T03:51:06.816Z,0.00
2023-09-01T03:51:57.566Z,0.00
2023-09-01T03:52:48.328Z,0.00
2023-09-01T03:53:39.103Z,0.00
2023-09-01T03:54:29.852Z,0.00
2023-09-01T03:55:20.641Z,0.00
2023-09-01T03:56:11.405Z,0.00
2023-09-01T03:57:02.152Z,0.00
2023-09-01T03:57:52.920Z,0.00
2023-09-01T03:58:43.724Z,0.00
2023-09-01T03:59:34.503Z,0.00
2023-09-01T04:00:25.294Z,0.00
2023-09-01T04:01:16.088Z,0.00
2023-09-01T04:02:06.841Z,0.00
2023-09-01T04:02:57.691Z,0.00
2023-09-01T04:03:48.522Z,0.00
2023-09-01T04:04:39.298Z,0.00
2023-09-01T04:05:30.393Z,0.00
2023-09-01T04:06:21.108Z,0.00
2023-09-01T04:07:12.413Z,0.00
2023-09-01T04:08:03.170Z,0.00
2023-09-01T04:08:53.915Z,0.00
2023-09-01T04:09:44.674Z,0.00
2023-09-01T04:10:35.564Z,1.00
2023-09-01T04:11:26.427Z,1.00
2023-09-01T04:12:17.295Z,1.00
2023-09-01T04:13:08.143Z,1.00
2023-09-01T04:13:59.045Z,1.00
2023-09-01T04:14:50.169Z,0.00
2023-09-01T04:15:40.998Z,0.00
2023-09-01T04:16:32.015Z,2.00
2023-09-01T04:17:22.956Z,2.00
2023-09-01T04:18:14.000Z,2.00
2023-09-01T04:19:04.879Z,3.00
2023-09-01T04:19:55.775Z,3.00
2023-09-01T04:20:46.628Z,3.00
2023-09-01T04:21:37.496Z,6.00
2023-09-01T04:22:28.356Z,6.00
2023-09-01T04:23:19.241Z,3.00
2023-09-01T04:24:10.852Z,3.00
2023-09-01T04:25:01.106Z,5.00
2023-09-01T04:25:51.921Z,4.00
2023-09-01T04:26:42.768Z,6.00
2023-09-01T04:27:33.649Z,6.00
2023-09-01T04:28:24.514Z,5.00
2023-09-01T04:29:15.381Z,8.00
2023-09-01T04:30:10.460Z,10.00
2023-09-01T04:30:57.031Z,13.00
2023-09-01T04:31:48.596Z,10.00
2023-09-01T04:32:38.872Z,9.00
2023-09-01T04:33:29.705Z,6.00
2023-09-01T04:34:20.611Z,10.00
2023-09-01T04:35:11.455Z,11.00
2023-09-01T04:36:02.463Z,18.00
2023-09-01T04:36:53.312Z,14.00
2023-09-01T04:37:44.198Z,15.00
2023-09-01T04:38:35.079Z,13.00
2023-09-01T04:39:25.957Z,18.00
2023-09-01T04:40:16.839Z,17.00
2023-09-01T04:41:07.736Z,21.00
2023-09-01T04:41:58.610Z,19.00
2023-09-01T04:42:49.489Z,20.00
2023-09-01T04:43:40.405Z,24.00
2023-09-01T04:44:31.273Z,24.00
2023-09-01T04:45:22.148Z,27.00
2023-09-01T04:46:13.049Z,18.00
2023-09-01T04:47:03.890Z,27.00
2023-09-01T04:47:54.827Z,28.00
2023-09-01T04:48:45.670Z,30.00
2023-09-01T04:49:36.568Z,35.00
2023-09-01T04:50:27.471Z,33.00
2023-09-01T04:51:18.347Z,36.00
2023-09-01T04:52:09.293Z,39.00
2023-09-01T04:53:00.184Z,35.00
2023-09-01T04:53:51.117Z,40.00
2023-09-01T04:54:41.990Z,42.00
2023-09-01T04:55:32.850Z,45.00
2023-09-01T04:56:23.757Z,47.00
2023-09-01T04:57:14.727Z,48.00
2023-09-01T04:58:05.531Z,53.00
2023-09-01T04:58:56.414Z,56.00
2023-09-01T04:59:47.301Z,56.00
2023-09-01T05:00:38.180Z,64.00
2023-09-01T05:01:29.200Z,61.00
2023-09-01T05:02:20.098Z,64.00
2023-09-01T05:03:11.065Z,63.00
2023-09-01T05:04:01.972Z,68.00
2023-09-01T05:04:52.830Z,73.00
2023-09-01T05:05:43.722Z,76.00
2023-09-01T05:06:34.600Z,79.00
2023-09-01T05:07:25.469Z,79.00
2023-09-01T05:08:16.571Z,78.00
2023-09-01T05:09:06.982Z,88.00
2023-09-01T05:09:57.845Z,92.00
2023-09-01T05:10:48.728Z,97.00
2023-09-01T05:11:39.675Z,96.00
2023-09-01T05:12:30.524Z,101.00
2023-09-01T05:13:21.472Z,105.00
2023-09-01T05:14:12.348Z,111.00
2023-09-01T05:15:03.280Z,109.00
2023-09-01T05:15:54.168Z,107.00
2023-09-01T05:16:45.057Z,115.00
2023-09-01T05:17:35.958Z,116.00
2023-09-01T05:18:26.891Z,122.00
2023-09-01T05:19:17.796Z,127.00
2023-09-01T05:20:08.710Z,126.00
2023-09-01T05:20:59.590Z,123.00
2023-09-01T05:21:50.487Z,132.00
2023-09-01T05:22:41.411Z,134.00
2023-09-01T05:23:32.321Z,139.00
2023-09-01T05:24:23.227Z,138.00
2023-09-01T05:25:14.129Z,140.00
2023-09-01T05:26:05.023Z,141.00
2023-09-01T05:26:55.927Z,145.00
2023-09-01T05:27:46.833Z,148.00
2023-09-01T05:28:37.738Z,152.00
2023-09-01T05:29:28.653Z,153.00
2023-09-01T05:30:19.512Z,154.00
2023-09-01T05:31:10.545Z,154.00
2023-09-01T05:32:01.481Z,164.00
2023-09-01T05:32:52.389Z,167.00
2023-09-01T05:33:43.268Z,165.00
2023-09-01T05:34:34.153Z,167.00
2023-09-01T05:35:25.057Z,169.00
2023-09-01T05:36:15.959Z,177.00
2023-09-01T05:37:06.856Z,176.00
2023-09-01T05:37:57.754Z,182.00
2023-09-01T05:38:48.692Z,182.00
2023-09-01T05:39:39.577Z,195.00
2023-09-01T05:40:30.475Z,191.00
2023-09-01T05:41:21.380Z,195.00
2023-09-01T05:42:12.271Z,195.00
2023-09-01T05:43:03.158Z,197.00
2023-09-01T05:43:54.073Z,202.00
2023-09-01T05:44:44.971Z,199.00
2023-09-01T05:45:35.914Z,202.00
2023-09-01T05:46:26.826Z,208.00
2023-09-01T05:47:17.708Z,209.00
2023-09-01T05:48:08.616Z,215.00
2023-09-01T05:48:59.520Z,214.00
2023-09-01T05:49:50.418Z,222.00
2023-09-01T05:50:41.317Z,226.00
2023-09-01T05:51:32.220Z,233.00
2023-09-01T05:52:23.133Z,237.00
2023-09-01T05:53:14.036Z,239.00
2023-09-01T05:54:04.939Z,239.00
2023-09-01T05:54:55.854Z,241.00
2023-09-01T05:55:46.765Z,239.00
2023-09-01T05:56:37.679Z,243.00
2023-09-01T05:57:28.606Z,252.00
2023-09-01T05:58:19.507Z,254.00
2023-09-01T05:59:10.404Z,255.00
2023-09-01T06:00:01.316Z,261.00
2023-09-01T06:00:52.195Z,260.00
2023-09-01T06:01:43.154Z,263.00
2023-09-01T06:02:34.032Z,265.00
2023-09-01T06:03:25.017Z,271.00
2023-09-01T06:04:15.905Z,271.00
2023-09-01T06:05:06.832Z,278.00
2023-09-01T06:05:57.744Z,279.00
2023-09-01T06:06:48.660Z,288.00
2023-09-01T06:07:39.573Z,285.00
2023-09-01T06:08:30.479Z,295.00
2023-09-01T06:09:21.395Z,294.00
2023-09-01T06:10:12.295Z,295.00
2023-09-01T06:11:03.218Z,303.00
2023-09-01T06:11:54.113Z,298.00
2023-09-01T06:12:45.057Z,308.00
2023-09-01T06:13:35.936Z,308.00
2023-09-01T06:14:26.849Z,320.00
2023-09-01T06:15:17.764Z,318.00
2023-09-01T06:16:08.695Z,319.00
2023-09-01T06:16:59.573Z,325.00
2023-09-01T06:17:50.551Z,326.00
2023-09-01T06:18:41.444Z,331.00
2023-09-01T06:19:32.347Z,333.00
2023-09-01T06:20:23.257Z,341.00
2023-09-01T06:21:14.152Z,346.00
2023-09-01T06:22:05.080Z,350.00
2023-09-01T06:22:56.026Z,363.00
2023-09-01T06:23:46.926Z,369.00
2023-09-01T06:24:37.848Z,363.00
2023-09-01T06:25:28.760Z,365.00
2023-09-01T06:26:19.680Z,368.00
2023-09-01T06:27:10.592Z,373.00
2023-09-01T06:28:01.500Z,374.00
2023-09-01T06:28:52.409Z,374.00
2023-09-01T06:29:43.291Z,372.00
2023-09-01T06:30:34.250Z,380.00
2023-09-01T06:31:25.114Z,380.00
2023-09-01T06:32:16.021Z,388.00
2023-09-01T06:33:06.951Z,394.00
2023-09-01T06:33:57.847Z,393.00
2023-09-01T06:34:48.745Z,401.00
2023-09-01T06:35:39.664Z,401.00
2023-09-01T06:36:30.556Z,402.00
2023-09-01T06:37:21.457Z,411.00
2023-09-01T06:38:12.576Z,410.00
2023-09-01T06:39:03.011Z,411.00
2023-09-01T06:39:53.912Z,411.00
2023-09-01T06:40:44.845Z,413.00
2023-09-01T06:41:35.756Z,411.00
2023-09-01T06:42:26.691Z,416.00
2023-09-01T06:43:17.663Z,413.00
2023-09-01T06:44:08.516Z,418.00
2023-09-01T06:44:59.411Z,417.00
2023-09-01T06:45:50.359Z,426.00
2023-09-01T06:46:41.225Z,422.00
2023-09-01T06:47:32.174Z,420.00
2023-09-01T06:48:23.049Z,419.00
2023-09-01T06:49:14.085Z,452.00
2023-09-01T06:50:05.008Z,476.00
2023-09-01T06:50:55.908Z,445.00
2023-09-01T06:51:46.808Z,425.00
2023-09-01T06:52:37.712Z,418.00
2023-09-01T06:53:28.612Z,424.00
2023-09-01T06:54:19.533Z,445.00
2023-09-01T06:55:10.431Z,462.00
2023-09-01T06:56:01.325Z,450.00
2023-09-01T06:56:52.242Z,440.00
2023-09-01T06:57:43.143Z,444.00
2023-09-01T06:58:34.096Z,446.00
2023-09-01T06:59:25.728Z,448.00
2023-09-01T07:00:16.060Z,466.00
2023-09-01T07:01:07.013Z,449.00
2023-09-01T07:01:57.911Z,448.00
2023-09-01T07:02:48.853Z,443.00
2023-09-01T07:03:39.731Z,458.00
2023-09-01T07:04:30.780Z,461.00
2023-09-01T07:05:21.542Z,415.00
2023-09-01T07:06:12.447Z,401.00
2023-09-01T07:07:03.348Z,388.00
2023-09-01T07:07:54.250Z,411.00
2023-09-01T07:08:45.159Z,427.00
2023-09-01T07:09:36.078Z,483.00
2023-09-01T07:10:26.977Z,524.00
2023-09-01T07:11:17.885Z,516.00
2023-09-01T07:12:08.798Z,521.00
2023-09-01T07:12:59.721Z,534.00
2023-09-01T07:13:50.647Z,515.00
2023-09-01T07:14:41.514Z,498.00
2023-09-01T07:15:32.416Z,526.00
2023-09-01T07:16:23.374Z,569.00
2023-09-01T07:17:14.274Z,565.00
2023-09-01T07:18:05.235Z,576.00
2023-09-01T07:18:56.121Z,552.00
2023-09-01T07:19:47.027Z,524.00
2023-09-01T07:20:37.960Z,545.00
2023-09-01T07:21:28.895Z,498.00
2023-09-01T07:22:19.789Z,500.00
2023-09-01T07:23:10.687Z,503.00
2023-09-01T07:24:01.587Z,503.00
2023-09-01T07:24:52.505Z,517.00
2023-09-01T07:25:43.416Z,540.00
2023-09-01T07:26:34.330Z,549.00
2023-09-01T07:27:25.232Z,603.00
2023-09-01T07:28:16.393Z,612.00
2023-09-01T07:29:06.926Z,619.00
2023-09-01T07:29:57.819Z,648.00
2023-09-01T07:30:48.731Z,665.00
2023-09-01T07:31:39.665Z,693.00
2023-09-01T07:32:30.551Z,699.00
2023-09-01T07:33:21.451Z,660.00
2023-09-01T07:34:12.363Z,637.00
2023-09-01T07:35:03.280Z,682.00
2023-09-01T07:35:54.200Z,723.00
2023-09-01T07:36:45.106Z,686.00
2023-09-01T07:37:36.024Z,661.00
2023-09-01T07:38:26.934Z,669.00
2023-09-01T07:39:17.866Z,728.00
2023-09-01T07:40:08.785Z,774.00
2023-09-01T07:40:59.680Z,804.00
2023-09-01T07:41:50.594Z,821.00
2023-09-01T07:42:41.481Z,824.00
2023-09-01T07:43:32.398Z,849.00
2023-09-01T07:44:23.346Z,862.00
2023-09-01T07:45:14.251Z,827.00
2023-09-01T07:46:05.163Z,809.00
2023-09-01T07:46:56.047Z,855.00
2023-09-01T07:47:51.795Z,860.00
2023-09-01T07:48:37.948Z,864.00
2023-09-01T07:49:28.878Z,906.00
2023-09-01T07:50:19.788Z,892.00
2023-09-01T07:51:10.701Z,850.00
2023-09-01T07:52:01.584Z,863.00
2023-09-01T07:52:52.509Z,859.00
2023-09-01T07:53:43.416Z,867.00
2023-09-01T07:54:34.337Z,882.00
2023-09-01T07:55:25.244Z,876.00
2023-09-01T07:56:16.153Z,908.00
2023-09-01T07:57:07.076Z,875.00
2023-09-01T07:57:57.968Z,859.00
2023-09-01T07:58:48.881Z,857.00
2023-09-01T07:59:39.838Z,813.00
2023-09-01T08:00:30.724Z,774.00
2023-09-01T08:01:21.676Z,778.00
2023-09-01T08:02:12.608Z,800.00
2023-09-01T08:03:03.645Z,814.00
2023-09-01T08:03:54.605Z,830.00
2023-09-01T08:04:45.512Z,813.00
2023-09-01T08:05:36.432Z,803.00
2023-09-01T08:06:27.336Z,749.00
2023-09-01T08:07:18.228Z,686.00
2023-09-01T08:08:09.159Z,657.00
2023-09-01T08:09:00.059Z,644.00
2023-09-01T08:09:50.989Z,637.00
2023-09-01T08:10:41.898Z,641.00
2023-09-01T08:11:32.806Z,635.00
2023-09-01T08:12:23.730Z,632.00
2023-09-01T08:13:14.643Z,647.00
2023-09-01T08:14:05.551Z,653.00
2023-09-01T08:14:56.502Z,661.00
2023-09-01T08:15:47.402Z,688.00
2023-09-01T08:16:38.324Z,734.00
2023-09-01T08:17:29.290Z,759.00
2023-09-01T08:18:20.184Z,732.00
2023-09-01T08:19:11.090Z,738.00
2023-09-01T08:20:01.974Z,717.00
2023-09-01T08:20:52.886Z,692.00
2023-09-01T08:21:43.809Z,683.00
2023-09-01T08:22:34.706Z,682.00
2023-09-01T08:23:25.627Z,688.00
2023-09-01T08:24:16.542Z,678.00
2023-09-01T08:25:07.454Z,665.00
2023-09-01T08:25:58.368Z,653.00
2023-09-01T08:26:49.277Z,655.00
2023-09-01T08:27:40.201Z,645.00
2023-09-01T08:28:32.358Z,642.00
2023-09-01T08:29:22.109Z,647.00
2023-09-01T08:30:13.051Z,648.00
2023-09-01T08:31:04.144Z,652.00
2023-09-01T08:31:55.099Z,654.00
2023-09-01T08:32:46.048Z,652.00
2023-09-01T08:33:36.923Z,651.00
2023-09-01T08:34:27.824Z,652.00
2023-09-01T08:35:18.737Z,659.00
2023-09-01T08:36:09.673Z,665.00
2023-09-01T08:37:00.568Z,668.00
2023-09-01T08:37:51.493Z,675.00
2023-09-01T08:38:44.005Z,688.00
2023-09-01T08:39:33.141Z,705.00
2023-09-01T08:40:24.081Z,711.00
2023-09-01T08:41:14.984Z,723.00
2023-09-01T08:42:05.893Z,732.00
2023-09-01T08:42:56.816Z,749.00
2023-09-01T08:43:47.718Z,755.00
2023-09-01T08:44:38.605Z,762.00
2023-09-01T08:45:29.529Z,768.00
2023-09-01T08:46:20.439Z,774.00
2023-09-01T08:47:11.386Z,799.00
2023-09-01T08:48:02.264Z,818.00
2023-09-01T08:48:53.184Z,839.00
2023-09-01T08:49:44.078Z,859.00
2023-09-01T08:50:35.001Z,941.00
2023-09-01T08:51:25.917Z,910.00
2023-09-01T08:52:16.840Z,940.00
2023-09-01T08:53:07.741Z,1001.00
2023-09-01T08:53:58.666Z,872.00
2023-09-01T08:54:49.716Z,1080.00
2023-09-01T08:55:40.695Z,1123.00
2023-09-01T08:56:31.575Z,1155.00
2023-09-01T08:57:22.478Z,1225.00
2023-09-01T08:58:13.837Z,1310.00
2023-09-01T08:59:04.336Z,1407.00
2023-09-01T08:59:55.263Z,1481.00
2023-09-01T09:00:46.241Z,1573.00
2023-09-01T09:01:37.152Z,1639.00
2023-09-01T09:02:28.082Z,1687.00
2023-09-01T09:03:19.104Z,1748.00
2023-09-01T09:04:10.090Z,1793.00
2023-09-01T09:05:01.033Z,1826.00
2023-09-01T09:05:52.002Z,1877.00
2023-09-01T09:06:43.109Z,1917.00
2023-09-01T09:07:34.013Z,1936.00
2023-09-01T09:08:24.991Z,1977.00
2023-09-01T09:09:15.908Z,2027.00
2023-09-01T09:10:06.827Z,2084.00
2023-09-01T09:10:57.750Z,2105.00
2023-09-01T09:11:48.691Z,2112.00
2023-09-01T09:12:39.637Z,2135.00
2023-09-01T09:13:30.562Z,2188.00
2023-09-01T09:14:21.505Z,2243.00
2023-09-01T09:15:12.440Z,2228.00
2023-09-01T09:16:03.502Z,2227.00
2023-09-01T09:16:54.372Z,1585.00
2023-09-01T09:17:45.321Z,1431.00
2023-09-01T09:18:36.446Z,2308.00
2023-09-01T09:19:26.888Z,2338.00
2023-09-01T09:20:17.807Z,2466.00
2023-09-01T09:21:08.754Z,2546.00
2023-09-01T09:21:59.661Z,2565.00
2023-09-01T09:22:50.598Z,2600.00
2023-09-01T09:23:41.537Z,2629.00
2023-09-01T09:24:32.467Z,2645.00
2023-09-01T09:25:23.402Z,2696.00
2023-09-01T09:26:14.332Z,2732.00
2023-09-01T09:27:05.326Z,2784.00
2023-09-01T09:27:56.218Z,2851.00
2023-09-01T09:28:47.151Z,2833.00
2023-09-01T09:29:38.099Z,2835.00
2023-09-01T09:30:29.152Z,2773.00
2023-09-01T09:31:22.062Z,2712.00
2023-09-01T09:32:11.240Z,2634.00
2023-09-01T09:33:02.242Z,2704.00
2023-09-01T09:33:53.151Z,2718.00
2023-09-01T09:34:44.085Z,2662.00
2023-09-01T09:35:35.027Z,2658.00
2023-09-01T09:36:25.968Z,2664.00
2023-09-01T09:37:16.903Z,2771.00
2023-09-01T09:38:07.852Z,2896.00
2023-09-01T09:38:58.783Z,1736.00
2023-09-01T09:39:49.715Z,3016.00
2023-09-01T09:40:40.674Z,3051.00
2023-09-01T09:41:31.600Z,3025.00
2023-09-01T09:42:22.532Z,3077.00
2023-09-01T09:43:13.465Z,2913.00
2023-09-01T09:44:04.414Z,2902.00
2023-09-01T09:44:55.350Z,1800.00
2023-09-01T09:45:46.377Z,2962.00
2023-09-01T09:46:37.324Z,2951.00
2023-09-01T09:47:28.274Z,2938.00
2023-09-01T09:48:19.592Z,2936.00
2023-09-01T09:49:10.114Z,2724.00
2023-09-01T09:50:01.041Z,2849.00
2023-09-01T09:50:51.980Z,2789.00
2023-09-01T09:51:42.919Z,2711.00
2023-09-01T09:52:33.830Z,2727.00
2023-09-01T09:53:24.767Z,2674.00
2023-09-01T09:54:15.691Z,2670.00
2023-09-01T09:55:06.635Z,2679.00
2023-09-01T09:55:57.574Z,2460.00
2023-09-01T09:56:48.506Z,2686.00
2023-09-01T09:57:39.435Z,1152.00
2023-09-01T09:58:30.348Z,923.00
2023-09-01T09:59:21.256Z,890.00
2023-09-01T10:00:12.167Z,1478.00
2023-09-01T10:01:03.147Z,2467.00
2023-09-01T10:01:54.108Z,2619.00
2023-09-01T10:02:44.985Z,2543.00
2023-09-01T10:03:35.936Z,2488.00
2023-09-01T10:04:26.878Z,2447.00
2023-09-01T10:05:17.805Z,2456.00
2023-09-01T10:06:08.763Z,2411.00
2023-09-01T10:06:59.693Z,2467.00
2023-09-01T10:07:50.612Z,1581.00
2023-09-01T10:08:41.588Z,2363.00
2023-09-01T10:09:32.470Z,2343.00
2023-09-01T10:10:23.421Z,2292.00
2023-09-01T10:11:14.345Z,2289.00
2023-09-01T10:12:05.300Z,2266.00
2023-09-01T10:12:56.168Z,2288.00
2023-09-01T10:13:47.120Z,2299.00
2023-09-01T10:14:38.036Z,2285.00
2023-09-01T10:15:28.994Z,2256.00
2023-09-01T10:16:19.972Z,2264.00
2023-09-01T10:17:10.916Z,2247.00
2023-09-01T10:18:01.872Z,2225.00
2023-09-01T10:18:52.814Z,2200.00
2023-09-01T10:19:43.799Z,891.00
2023-09-01T10:20:34.677Z,895.00
2023-09-01T10:21:25.682Z,2093.00
2023-09-01T10:22:16.619Z,2126.00
2023-09-01T10:23:07.557Z,2051.00
2023-09-01T10:23:58.517Z,1996.00
2023-09-01T10:24:49.419Z,2027.00
2023-09-01T10:25:40.353Z,2086.00
2023-09-01T10:26:31.294Z,2101.00
2023-09-01T10:27:22.239Z,2116.00
2023-09-01T10:28:13.272Z,2120.00
2023-09-01T10:29:04.277Z,2104.00
2023-09-01T10:29:55.212Z,2083.00
2023-09-01T10:30:46.148Z,2081.00
2023-09-01T10:31:37.098Z,2075.00
2023-09-01T10:32:28.075Z,2079.00
2023-09-01T10:33:18.983Z,2092.00
2023-09-01T10:34:09.897Z,1037.00
2023-09-01T10:35:00.798Z,1028.00
2023-09-01T10:35:51.732Z,2103.00
2023-09-01T10:36:42.652Z,2102.00
2023-09-01T10:37:33.615Z,2108.00
2023-09-01T10:38:24.533Z,2134.00
2023-09-01T10:39:15.469Z,2165.00
2023-09-01T10:40:06.411Z,2167.00
2023-09-01T10:40:57.350Z,2073.00
2023-09-01T10:41:48.296Z,2004.00
2023-09-01T10:42:39.247Z,1963.00
2023-09-01T10:43:30.199Z,1841.00
2023-09-01T10:44:21.139Z,1619.00
2023-09-01T10:45:12.080Z,1800.00
2023-09-01T10:46:03.022Z,1876.00
2023-09-01T10:46:53.955Z,1958.00
2023-09-01T10:47:44.900Z,1929.00
2023-09-01T10:48:35.800Z,1910.00